Terminal Aerodrome Forecast
Issued by NWS Missoula, MT

Home | Current Version | Previous Version | Text Only | Print | Product List | Glossary On
Versions: 1 2 3 4 5 6 7 8 9 10 11 12
000
FTUS45 KMSO 171720
TAFBTM
TAF
KBTM 171720Z 1718/1818 VRB03KT P6SM SKC
     FM172100 21009KT P6SM VCSH FEW150
     FM180300 15005KT P6SM SCT120
     FM181300 20010KT P6SM -SHRA BKN070 OVC100=

USA.gov is the U.S. government's official web portal to all federal, state and local government web resources and services.